createdAt,value
2016-12-01T00:00:13.546Z,18.06
2016-12-01T00:01:13.455Z,18.10
2016-12-01T00:02:12.877Z,18.60
2016-12-01T00:03:12.644Z,18.66
2016-12-01T00:04:12.517Z,18.67
2016-12-01T00:05:13.456Z,18.69
2016-12-01T00:06:12.042Z,18.69
2016-12-01T00:07:13.419Z,18.70
2016-12-01T00:08:13.052Z,18.71
2016-12-01T00:09:15.478Z,18.70
2016-12-01T00:10:13.727Z,18.70
2016-12-01T00:11:11.772Z,18.36
2016-12-01T00:12:12.374Z,18.18
2016-12-01T00:13:11.128Z,18.11
2016-12-01T00:14:13.014Z,18.64
2016-12-01T00:15:11.721Z,18.69
2016-12-01T00:16:12.311Z,18.70
2016-12-01T00:17:13.393Z,18.68
2016-12-01T00:18:13.183Z,18.18
2016-12-01T00:19:12.732Z,18.13
2016-12-01T00:20:12.549Z,18.19
2016-12-01T00:21:12.548Z,18.10
2016-12-01T00:22:13.230Z,18.09
2016-12-01T00:23:13.595Z,18.09
2016-12-01T00:24:11.760Z,18.09
2016-12-01T00:25:11.798Z,18.09
2016-12-01T00:26:13.051Z,18.14
2016-12-01T00:27:11.952Z,18.09
2016-12-01T00:28:12.385Z,18.10
2016-12-01T00:29:12.220Z,18.08
2016-12-01T00:30:12.665Z,18.09
2016-12-01T00:31:11.743Z,18.08
2016-12-01T00:32:12.485Z,18.08
2016-12-01T00:33:13.508Z,18.12
2016-12-01T00:34:12.476Z,18.62
2016-12-01T00:35:12.851Z,18.66
2016-12-01T00:36:13.567Z,18.69
2016-12-01T00:37:12.189Z,18.69
2016-12-01T00:38:11.152Z,18.68
2016-12-01T00:39:12.759Z,18.70
2016-12-01T00:40:12.446Z,18.34
2016-12-01T00:41:10.453Z,18.16
2016-12-01T00:42:12.546Z,18.11
2016-12-01T00:43:13.945Z,18.10
2016-12-01T00:44:12.498Z,18.12
2016-12-01T00:45:12.480Z,18.08
2016-12-01T00:46:13.202Z,18.08
2016-12-01T00:47:12.181Z,18.08
2016-12-01T00:48:12.179Z,18.07
2016-12-01T00:49:12.725Z,18.08
2016-12-01T00:50:13.485Z,18.06
2016-12-01T00:51:11.090Z,18.06
2016-12-01T00:52:12.262Z,18.60
2016-12-01T00:53:13.681Z,18.65
2016-12-01T00:54:11.745Z,18.65
2016-12-01T00:55:12.272Z,18.67
2016-12-01T00:56:13.196Z,18.67
2016-12-01T00:57:12.236Z,18.68
2016-12-01T00:58:12.789Z,18.68
2016-12-01T00:59:10.693Z,18.68
2016-12-01T01:00:12.761Z,18.68
2016-12-01T01:01:12.447Z,18.67
2016-12-01T01:02:12.816Z,18.68
2016-12-01T01:03:12.956Z,18.16
2016-12-01T01:04:12.485Z,18.08
2016-12-01T01:05:12.940Z,18.09
2016-12-01T01:06:10.119Z,18.05
2016-12-01T01:07:12.436Z,18.05
2016-12-01T01:08:13.355Z,18.05
2016-12-01T01:09:13.268Z,18.03
2016-12-01T01:10:12.912Z,18.03
2016-12-01T01:11:12.297Z,18.07
2016-12-01T01:12:13.810Z,18.03
2016-12-01T01:13:12.647Z,18.03
2016-12-01T01:14:12.609Z,18.03
2016-12-01T01:15:11.996Z,18.07
2016-12-01T01:16:13.502Z,18.03
2016-12-01T01:17:13.097Z,18.02
2016-12-01T01:18:10.027Z,18.02
2016-12-01T01:19:12.327Z,18.03
2016-12-01T01:20:13.927Z,18.01
2016-12-01T01:21:14.751Z,18.02
2016-12-01T01:22:12.537Z,18.02
2016-12-01T01:23:12.496Z,18.01
2016-12-01T01:24:12.612Z,18.02
2016-12-01T01:25:12.158Z,18.07
2016-12-01T01:26:14.811Z,18.00
2016-12-01T01:27:13.402Z,18.01
2016-12-01T01:28:12.822Z,18.04
2016-12-01T01:29:14.378Z,18.01
2016-12-01T01:30:13.518Z,18.05
2016-12-01T01:31:12.463Z,18.01
2016-12-01T01:32:13.693Z,18.01
2016-12-01T01:33:11.656Z,18.01
2016-12-01T01:34:12.525Z,18.00
2016-12-01T01:35:13.659Z,18.01
2016-12-01T01:36:13.904Z,17.99
2016-12-01T01:37:12.978Z,18.01
2016-12-01T01:38:11.604Z,18.00
2016-12-01T01:39:10.314Z,18.55
2016-12-01T01:40:13.343Z,18.60
2016-12-01T01:41:12.233Z,18.60
2016-12-01T01:42:12.169Z,18.62
2016-12-01T01:43:14.155Z,18.62
2016-12-01T01:44:12.267Z,18.63
2016-12-01T01:45:12.340Z,18.63
2016-12-01T01:46:11.337Z,18.63
2016-12-01T01:47:12.948Z,18.64
2016-12-01T01:48:14.443Z,18.64
2016-12-01T01:49:12.628Z,18.13
2016-12-01T01:50:12.973Z,18.06
2016-12-01T01:51:15.058Z,18.03
2016-12-01T01:52:12.194Z,18.05
2016-12-01T01:53:13.314Z,18.02
2016-12-01T01:54:13.261Z,18.01
2016-12-01T01:55:13.758Z,18.04
2016-12-01T01:56:11.820Z,18.00
2016-12-01T01:57:13.935Z,18.00
2016-12-01T01:58:13.626Z,18.01
2016-12-01T01:59:13.988Z,18.52
2016-12-01T02:00:14.993Z,18.04
2016-12-01T02:01:11.417Z,18.02
2016-12-01T02:02:11.871Z,18.01
2016-12-01T02:03:13.687Z,18.00
2016-12-01T02:04:12.428Z,18.00
2016-12-01T02:05:11.584Z,17.99
2016-12-01T02:06:13.104Z,18.01
2016-12-01T02:07:13.671Z,17.99
2016-12-01T02:08:13.370Z,17.98
2016-12-01T02:09:14.091Z,17.99
2016-12-01T02:10:13.736Z,18.00
2016-12-01T02:11:12.293Z,17.99
2016-12-01T02:12:14.420Z,17.99
2016-12-01T02:13:13.236Z,17.98
2016-12-01T02:14:15.948Z,17.98
2016-12-01T02:15:12.428Z,18.04
2016-12-01T02:16:13.680Z,17.99
2016-12-01T02:17:11.895Z,18.00
2016-12-01T02:18:14.452Z,17.99
2016-12-01T02:19:12.230Z,18.00
2016-12-01T02:20:14.840Z,18.54
2016-12-01T02:21:13.887Z,18.59
2016-12-01T02:22:12.950Z,18.24
2016-12-01T02:23:12.415Z,18.09
2016-12-01T02:24:11.195Z,18.03
2016-12-01T02:25:11.606Z,18.55
2016-12-01T02:26:14.948Z,18.58
2016-12-01T02:27:11.978Z,18.08
2016-12-01T02:28:09.539Z,18.05
2016-12-01T02:29:14.270Z,18.02
2016-12-01T02:30:12.961Z,18.04
2016-12-01T02:31:16.191Z,18.02
2016-12-01T02:32:12.982Z,18.00
2016-12-01T02:33:13.243Z,18.01
2016-12-01T02:34:12.800Z,18.07
2016-12-01T02:35:13.915Z,18.00
2016-12-01T02:36:15.066Z,18.00
2016-12-01T02:37:11.462Z,18.00
2016-12-01T02:38:14.373Z,18.00
2016-12-01T02:39:14.122Z,18.01
2016-12-01T02:40:13.619Z,18.03
2016-12-01T02:41:13.653Z,18.19
2016-12-01T02:42:12.974Z,18.05
2016-12-01T02:43:12.005Z,18.03
2016-12-01T02:44:10.771Z,18.00
2016-12-01T02:45:12.513Z,18.01
2016-12-01T02:46:16.273Z,18.01
2016-12-01T02:47:13.924Z,18.01
2016-12-01T02:48:12.853Z,18.00
2016-12-01T02:49:11.903Z,18.00
2016-12-01T02:50:12.704Z,18.00
2016-12-01T02:51:13.089Z,18.00
2016-12-01T02:52:15.613Z,18.00
2016-12-01T02:53:14.494Z,17.99
2016-12-01T02:54:12.820Z,18.00
2016-12-01T02:55:13.036Z,17.99
2016-12-01T02:56:10.681Z,17.99
2016-12-01T02:57:13.377Z,18.52
2016-12-01T02:58:18.324Z,18.04
2016-12-01T02:59:12.882Z,18.01
2016-12-01T03:00:12.819Z,18.02
2016-12-01T03:01:11.852Z,18.01
2016-12-01T03:02:12.415Z,17.99
2016-12-01T03:03:14.445Z,18.00
2016-12-01T03:04:10.823Z,17.99
2016-12-01T03:05:14.095Z,18.00
2016-12-01T03:06:10.603Z,17.98
2016-12-01T03:07:11.919Z,17.99
2016-12-01T03:08:12.282Z,18.05
2016-12-01T03:09:12.863Z,18.00
2016-12-01T03:10:12.435Z,17.99
2016-12-01T03:11:13.545Z,18.00
2016-12-01T03:12:13.075Z,17.99
2016-12-01T03:13:12.134Z,18.00
2016-12-01T03:14:12.211Z,18.00
2016-12-01T03:15:12.331Z,18.00
2016-12-01T03:16:12.206Z,17.99
2016-12-01T03:17:12.282Z,18.00
2016-12-01T03:18:10.377Z,17.98
2016-12-01T03:19:13.575Z,18.53
2016-12-01T03:20:12.991Z,18.56
2016-12-01T03:21:12.127Z,18.21
2016-12-01T03:22:13.306Z,18.06
2016-12-01T03:23:12.318Z,18.02
2016-12-01T03:24:12.867Z,18.00
2016-12-01T03:25:13.314Z,18.00
2016-12-01T03:26:12.725Z,18.02
2016-12-01T03:27:12.441Z,18.00
2016-12-01T03:28:12.826Z,18.00
2016-12-01T03:29:11.858Z,17.99
2016-12-01T03:30:12.820Z,17.99
2016-12-01T03:31:11.857Z,17.99
2016-12-01T03:32:10.128Z,17.99
2016-12-01T03:33:11.987Z,17.99
2016-12-01T03:34:12.652Z,17.99
2016-12-01T03:35:12.185Z,18.04
2016-12-01T03:36:13.454Z,17.99
2016-12-01T03:37:09.569Z,17.98
2016-12-01T03:38:12.207Z,17.99
2016-12-01T03:39:12.750Z,18.01
2016-12-01T03:40:12.417Z,18.52
2016-12-01T03:41:13.083Z,18.25
2016-12-01T03:42:10.895Z,18.04
2016-12-01T03:43:12.481Z,18.03
2016-12-01T03:44:12.979Z,18.00
2016-12-01T03:45:13.154Z,18.00
2016-12-01T03:46:12.414Z,17.99
2016-12-01T03:47:12.863Z,17.98
2016-12-01T03:48:12.238Z,18.02
2016-12-01T03:49:12.125Z,17.98
2016-12-01T03:50:12.397Z,18.03
2016-12-01T03:51:12.467Z,17.98
2016-12-01T03:52:11.195Z,17.97
2016-12-01T03:53:14.838Z,17.98
2016-12-01T03:54:14.143Z,17.98
2016-12-01T03:55:12.725Z,17.98
2016-12-01T03:56:12.331Z,17.98
2016-12-01T03:57:12.742Z,18.04
2016-12-01T03:58:13.741Z,17.98
2016-12-01T03:59:12.749Z,17.99
2016-12-01T04:00:12.386Z,17.97
2016-12-01T04:01:10.863Z,17.97
2016-12-01T04:02:12.208Z,18.52
2016-12-01T04:03:12.934Z,18.56
2016-12-01T04:04:12.451Z,18.59
2016-12-01T04:05:12.555Z,18.06
2016-12-01T04:06:13.366Z,18.02
2016-12-01T04:07:12.766Z,18.02
2016-12-01T04:08:12.752Z,18.02
2016-12-01T04:09:12.923Z,17.99
2016-12-01T04:10:12.569Z,17.98
2016-12-01T04:11:12.995Z,17.98
2016-12-01T04:12:13.178Z,18.01
2016-12-01T04:13:13.911Z,17.99
2016-12-01T04:14:12.326Z,17.98
2016-12-01T04:15:13.461Z,17.99
2016-12-01T04:16:12.504Z,17.98
2016-12-01T04:17:13.316Z,17.97
2016-12-01T04:18:13.604Z,17.97
2016-12-01T04:19:12.763Z,17.98
2016-12-01T04:20:11.712Z,17.98
2016-12-01T04:21:14.105Z,17.99
2016-12-01T04:22:12.845Z,17.98
2016-12-01T04:23:12.390Z,18.01
2016-12-01T04:24:12.453Z,17.99
2016-12-01T04:25:12.363Z,17.98
2016-12-01T04:26:12.324Z,17.98
2016-12-01T04:27:12.443Z,17.98
2016-12-01T04:28:12.870Z,18.00
2016-12-01T04:29:11.753Z,17.98
2016-12-01T04:30:11.764Z,17.98
2016-12-01T04:31:12.308Z,17.96
2016-12-01T04:32:12.930Z,17.98
2016-12-01T04:33:13.318Z,17.97
2016-12-01T04:34:12.992Z,17.97
2016-12-01T04:35:13.472Z,17.98
2016-12-01T04:36:12.383Z,17.97
2016-12-01T04:37:10.255Z,17.97
2016-12-01T04:38:11.652Z,18.51
2016-12-01T04:39:12.375Z,18.56
2016-12-01T04:40:09.668Z,18.05
2016-12-01T04:41:12.114Z,18.01
2016-12-01T04:42:12.818Z,17.99
2016-12-01T04:43:10.815Z,17.99
2016-12-01T04:44:13.155Z,17.99
2016-12-01T04:45:12.210Z,17.98
2016-12-01T04:46:10.742Z,17.97
2016-12-01T04:47:13.671Z,18.51
2016-12-01T04:48:12.386Z,18.56
2016-12-01T04:49:13.448Z,18.03
2016-12-01T04:50:12.433Z,18.01
2016-12-01T04:51:12.257Z,17.98
2016-12-01T04:52:12.296Z,17.98
2016-12-01T04:53:12.864Z,17.98
2016-12-01T04:54:13.131Z,17.98
2016-12-01T04:55:10.191Z,18.51
2016-12-01T04:56:13.206Z,18.18
2016-12-01T04:57:12.881Z,18.07
2016-12-01T04:58:12.928Z,18.00
2016-12-01T04:59:12.003Z,17.99
2016-12-01T05:00:12.129Z,17.98
2016-12-01T05:01:12.878Z,17.97
2016-12-01T05:02:12.190Z,18.01
2016-12-01T05:03:13.998Z,17.98
2016-12-01T05:04:13.643Z,17.98
2016-12-01T05:05:12.997Z,18.02
2016-12-01T05:06:12.108Z,17.98
2016-12-01T05:07:12.771Z,17.97
2016-12-01T05:08:14.185Z,17.98
2016-12-01T05:09:12.701Z,18.04
2016-12-01T05:10:12.398Z,18.06
2016-12-01T05:11:13.029Z,18.05
2016-12-01T05:12:12.690Z,18.05
2016-12-01T05:13:09.762Z,18.04
2016-12-01T05:14:11.815Z,18.03
2016-12-01T05:15:11.860Z,18.04
2016-12-01T05:16:11.933Z,18.04
2016-12-01T05:17:12.503Z,18.06
2016-12-01T05:18:12.475Z,18.03
2016-12-01T05:19:13.345Z,18.03
2016-12-01T05:20:14.459Z,18.02
2016-12-01T05:21:13.478Z,18.02
2016-12-01T05:22:13.702Z,18.02
2016-12-01T05:23:12.597Z,18.01
2016-12-01T05:24:13.108Z,18.01
2016-12-01T05:25:14.225Z,18.01
2016-12-01T05:26:13.216Z,18.01
2016-12-01T05:27:16.469Z,18.02
2016-12-01T05:28:12.708Z,18.08
2016-12-01T05:29:10.980Z,18.00
2016-12-01T05:30:10.847Z,18.53
2016-12-01T05:31:13.725Z,18.06
2016-12-01T05:32:12.584Z,18.03
2016-12-01T05:33:11.569Z,18.02
2016-12-01T05:34:13.437Z,18.01
2016-12-01T05:35:13.012Z,18.01
2016-12-01T05:36:12.968Z,18.03
2016-12-01T05:37:12.715Z,18.00
2016-12-01T05:38:12.385Z,18.00
2016-12-01T05:39:13.032Z,18.00
2016-12-01T05:40:12.750Z,18.01
2016-12-01T05:41:12.447Z,18.01
2016-12-01T05:42:13.040Z,18.00
2016-12-01T05:43:12.196Z,18.00
2016-12-01T05:44:10.241Z,18.00
2016-12-01T05:45:11.177Z,17.99
2016-12-01T05:46:13.955Z,17.99
2016-12-01T05:47:11.955Z,17.99
2016-12-01T05:48:11.973Z,17.99
2016-12-01T05:49:13.734Z,18.00
2016-12-01T05:50:11.768Z,18.00
2016-12-01T05:51:11.851Z,18.00
2016-12-01T05:52:12.518Z,18.03
2016-12-01T05:53:10.319Z,18.00
2016-12-01T05:54:12.923Z,18.05
2016-12-01T05:55:12.704Z,18.02
2016-12-01T05:56:12.513Z,18.03
2016-12-01T05:57:13.697Z,18.03
2016-12-01T05:58:11.767Z,18.05
2016-12-01T05:59:14.489Z,18.06
2016-12-01T06:00:18.746Z,18.06
2016-12-01T06:01:12.060Z,18.08
2016-12-01T06:02:12.615Z,18.07
2016-12-01T06:03:11.701Z,18.09
2016-12-01T06:04:11.773Z,18.09
2016-12-01T06:05:11.705Z,18.10
2016-12-01T06:06:19.253Z,18.09
2016-12-01T06:07:13.046Z,18.10
2016-12-01T06:08:12.769Z,18.12
2016-12-01T06:09:10.942Z,18.13
2016-12-01T06:10:11.901Z,18.17
2016-12-01T06:11:18.027Z,18.25
2016-12-01T06:12:12.736Z,18.18
2016-12-01T06:13:18.339Z,18.24
2016-12-01T06:14:13.905Z,18.25
2016-12-01T06:15:12.014Z,18.24
2016-12-01T06:16:12.695Z,18.30
2016-12-01T06:17:11.824Z,18.21
2016-12-01T06:18:12.252Z,18.24
2016-12-01T06:19:12.135Z,18.23
2016-12-01T06:20:12.804Z,18.24
2016-12-01T06:21:12.522Z,18.26
2016-12-01T06:22:13.229Z,18.28
2016-12-01T06:23:12.724Z,18.36
2016-12-01T06:24:11.977Z,18.31
2016-12-01T06:25:11.990Z,18.33
2016-12-01T06:26:12.950Z,18.33
2016-12-01T06:27:11.846Z,18.34
2016-12-01T06:28:13.760Z,18.34
2016-12-01T06:29:12.115Z,18.40
2016-12-01T06:30:12.096Z,18.34
2016-12-01T06:31:13.436Z,18.36
2016-12-01T06:32:13.155Z,18.36
2016-12-01T06:33:13.584Z,18.34
2016-12-01T06:34:12.377Z,18.36
2016-12-01T06:35:12.930Z,18.35
2016-12-01T06:36:11.972Z,18.32
2016-12-01T06:37:12.026Z,18.29
2016-12-01T06:38:12.896Z,18.29
2016-12-01T06:39:11.929Z,18.28
2016-12-01T06:40:11.867Z,18.27
2016-12-01T06:41:13.469Z,18.27
2016-12-01T06:42:13.732Z,18.26
2016-12-01T06:43:11.814Z,18.24
2016-12-01T06:44:11.828Z,18.22
2016-12-01T06:45:13.116Z,18.23
2016-12-01T06:46:12.167Z,17.98
2016-12-01T06:47:13.001Z,17.33
2016-12-01T06:48:12.781Z,16.74
2016-12-01T06:49:11.715Z,16.49
2016-12-01T06:50:12.817Z,16.13
2016-12-01T06:51:12.397Z,16.10
2016-12-01T06:52:12.944Z,16.45
2016-12-01T06:53:13.859Z,16.79
2016-12-01T06:54:18.426Z,17.04
2016-12-01T06:55:13.197Z,17.22
2016-12-01T06:56:12.158Z,17.38
2016-12-01T06:57:12.174Z,17.50
2016-12-01T06:58:12.167Z,17.59
2016-12-01T06:59:12.320Z,17.66
2016-12-01T07:00:13.107Z,17.72
2016-12-01T07:01:12.483Z,17.81
2016-12-01T07:02:12.964Z,17.83
2016-12-01T07:03:12.531Z,17.86
2016-12-01T07:04:12.516Z,17.90
2016-12-01T07:05:12.554Z,17.92
2016-12-01T07:06:13.066Z,17.86
2016-12-01T07:07:13.297Z,18.36
2016-12-01T07:08:12.792Z,18.41
2016-12-01T07:09:11.904Z,18.40
2016-12-01T07:10:12.551Z,18.41
2016-12-01T07:11:11.075Z,18.44
2016-12-01T07:12:12.830Z,18.43
2016-12-01T07:13:11.745Z,18.05
2016-12-01T07:14:11.952Z,17.86
2016-12-01T07:15:10.092Z,17.80
2016-12-01T07:16:12.613Z,17.81
2016-12-01T07:17:13.481Z,17.79
2016-12-01T07:18:12.576Z,17.84
2016-12-01T07:19:12.755Z,17.87
2016-12-01T07:20:12.259Z,17.94
2016-12-01T07:21:13.165Z,17.94
2016-12-01T07:22:12.744Z,17.97
2016-12-01T07:23:11.810Z,17.99
2016-12-01T07:24:10.804Z,18.00
2016-12-01T07:25:11.920Z,18.53
2016-12-01T07:26:13.486Z,18.25
2016-12-01T07:27:12.503Z,18.18
2016-12-01T07:28:13.358Z,17.98
2016-12-01T07:29:12.364Z,17.91
2016-12-01T07:30:12.361Z,17.88
2016-12-01T07:31:10.857Z,17.83
2016-12-01T07:32:12.642Z,18.14
2016-12-01T07:33:10.623Z,17.79
2016-12-01T07:34:11.529Z,18.29
2016-12-01T07:35:13.351Z,18.28
2016-12-01T07:36:14.040Z,18.28
2016-12-01T07:37:12.079Z,18.32
2016-12-01T07:38:12.007Z,18.03
2016-12-01T07:39:13.024Z,17.86
2016-12-01T07:40:13.615Z,17.88
2016-12-01T07:41:12.513Z,17.89
2016-12-01T07:42:12.525Z,17.92
2016-12-01T07:43:12.864Z,17.98
2016-12-01T07:44:11.802Z,17.97
2016-12-01T07:45:11.729Z,18.00
2016-12-01T07:46:11.709Z,18.02
2016-12-01T07:47:12.670Z,18.05
2016-12-01T07:48:08.975Z,18.05
2016-12-01T07:49:12.556Z,18.07
2016-12-01T07:50:12.667Z,18.06
2016-12-01T07:51:18.570Z,18.09
2016-12-01T07:52:12.894Z,18.13
2016-12-01T07:53:12.843Z,18.11
2016-12-01T07:54:12.419Z,18.07
2016-12-01T07:55:12.472Z,18.05
2016-12-01T07:56:10.314Z,17.95
2016-12-01T07:57:12.821Z,18.41
2016-12-01T07:58:12.340Z,18.43
2016-12-01T07:59:13.055Z,17.90
2016-12-01T08:00:12.260Z,17.83
2016-12-01T08:01:13.654Z,17.83
2016-12-01T08:02:11.756Z,18.32
2016-12-01T08:03:10.631Z,18.41
2016-12-01T08:04:12.674Z,18.55
2016-12-01T08:05:11.606Z,18.03
2016-12-01T08:06:12.640Z,17.96
2016-12-01T08:07:11.751Z,17.91
2016-12-01T08:08:13.024Z,17.92
2016-12-01T08:09:12.188Z,17.89
2016-12-01T08:10:13.963Z,17.89
2016-12-01T08:11:12.509Z,17.88
2016-12-01T08:12:14.354Z,17.88
2016-12-01T08:13:10.418Z,17.89
2016-12-01T08:14:13.413Z,17.88
2016-12-01T08:15:12.622Z,17.89
2016-12-01T08:16:13.366Z,17.90
2016-12-01T08:17:12.448Z,17.90
2016-12-01T08:18:13.552Z,17.93
2016-12-01T08:19:12.541Z,17.89
2016-12-01T08:20:13.174Z,17.89
2016-12-01T08:21:12.779Z,17.93
2016-12-01T08:22:12.354Z,18.43
2016-12-01T08:23:10.929Z,17.95
2016-12-01T08:24:18.516Z,17.98
2016-12-01T08:25:13.234Z,17.91
2016-12-01T08:26:12.190Z,17.91
2016-12-01T08:27:13.924Z,17.91
2016-12-01T08:28:10.966Z,17.90
2016-12-01T08:29:11.991Z,18.43
2016-12-01T08:30:12.100Z,17.96
2016-12-01T08:31:12.133Z,17.93
2016-12-01T08:32:13.258Z,17.91
2016-12-01T08:33:11.961Z,17.90
2016-12-01T08:34:12.187Z,18.44
2016-12-01T08:35:12.883Z,18.49
2016-12-01T08:36:12.450Z,18.50
2016-12-01T08:37:12.257Z,18.53
2016-12-01T08:38:12.206Z,18.52
2016-12-01T08:39:12.132Z,18.54
2016-12-01T08:40:12.169Z,18.54
2016-12-01T08:41:12.960Z,18.55
2016-12-01T08:42:12.004Z,18.54
2016-12-01T08:43:10.675Z,18.55
2016-12-01T08:44:17.451Z,18.56
2016-12-01T08:45:12.412Z,18.55
2016-12-01T08:46:13.922Z,18.20
2016-12-01T08:47:12.649Z,18.02
2016-12-01T08:48:12.090Z,18.02
2016-12-01T08:49:12.468Z,17.95
2016-12-01T08:50:12.752Z,18.01
2016-12-01T08:51:11.828Z,17.94
2016-12-01T08:52:12.488Z,17.96
2016-12-01T08:53:13.299Z,17.93
2016-12-01T08:54:12.433Z,17.94
2016-12-01T08:55:12.854Z,17.93
2016-12-01T08:56:12.409Z,17.98
2016-12-01T08:57:13.048Z,17.94
2016-12-01T08:58:12.393Z,17.98
2016-12-01T08:59:12.324Z,17.94
2016-12-01T09:00:12.131Z,17.94
2016-12-01T09:01:12.398Z,17.97
2016-12-01T09:02:12.498Z,17.95
2016-12-01T09:03:13.171Z,17.96
2016-12-01T09:04:12.742Z,17.95
2016-12-01T09:05:11.791Z,17.97
2016-12-01T09:06:13.507Z,17.97
2016-12-01T09:07:13.143Z,17.98
2016-12-01T09:08:13.988Z,17.97
2016-12-01T09:09:12.471Z,18.01
2016-12-01T09:10:12.434Z,17.98
2016-12-01T09:11:12.184Z,17.97
2016-12-01T09:12:12.502Z,18.03
2016-12-01T09:13:12.518Z,17.98
2016-12-01T09:14:12.538Z,17.98
2016-12-01T09:15:12.972Z,18.01
2016-12-01T09:16:12.113Z,18.52
2016-12-01T09:17:10.041Z,18.56
2016-12-01T09:18:13.987Z,18.58
2016-12-01T09:19:17.372Z,18.06
2016-12-01T09:20:12.349Z,18.02
2016-12-01T09:21:12.277Z,18.00
2016-12-01T09:22:12.829Z,18.01
2016-12-01T09:23:12.500Z,17.99
2016-12-01T09:24:12.530Z,17.99
2016-12-01T09:25:13.072Z,17.99
2016-12-01T09:26:12.693Z,17.99
2016-12-01T09:27:11.592Z,17.99
2016-12-01T09:28:11.630Z,17.99
2016-12-01T09:29:11.442Z,17.99
2016-12-01T09:30:13.213Z,17.99
2016-12-01T09:31:12.476Z,18.04
2016-12-01T09:32:13.084Z,17.98
2016-12-01T09:33:13.391Z,18.03
2016-12-01T09:34:12.436Z,17.98
2016-12-01T09:35:13.080Z,17.99
2016-12-01T09:36:12.172Z,17.98
2016-12-01T09:37:12.652Z,18.01
2016-12-01T09:38:11.607Z,18.51
2016-12-01T09:39:11.592Z,18.56
2016-12-01T09:40:13.451Z,18.05
2016-12-01T09:41:12.781Z,18.04
2016-12-01T09:42:11.751Z,17.99
2016-12-01T09:43:13.084Z,17.98
2016-12-01T09:44:12.195Z,17.98
2016-12-01T09:45:13.613Z,17.98
2016-12-01T09:46:12.403Z,17.97
2016-12-01T09:47:13.273Z,17.98
2016-12-01T09:48:12.718Z,17.98
2016-12-01T09:49:14.151Z,17.98
2016-12-01T09:50:12.322Z,17.98
2016-12-01T09:51:13.019Z,17.98
2016-12-01T09:52:12.721Z,17.97
2016-12-01T09:53:12.072Z,18.01
2016-12-01T09:54:10.735Z,17.99
2016-12-01T09:55:12.001Z,17.99
2016-12-01T09:56:12.845Z,17.98
2016-12-01T09:57:11.929Z,17.99
2016-12-01T09:58:13.562Z,17.99
2016-12-01T09:59:12.461Z,17.99
2016-12-01T10:00:10.968Z,17.98
2016-12-01T10:01:12.937Z,17.98
2016-12-01T10:02:12.140Z,17.99
2016-12-01T10:03:12.211Z,17.99
2016-12-01T10:04:13.713Z,17.98
2016-12-01T10:05:11.572Z,17.99
2016-12-01T10:06:11.613Z,17.99
2016-12-01T10:07:12.443Z,17.99
2016-12-01T10:08:12.993Z,17.99
2016-12-01T10:09:12.038Z,18.00
2016-12-01T10:10:12.575Z,17.99
2016-12-01T10:11:12.179Z,18.02
2016-12-01T10:12:12.041Z,17.99
2016-12-01T10:13:11.969Z,17.99
2016-12-01T10:14:09.220Z,17.98
2016-12-01T10:15:12.272Z,17.99
2016-12-01T10:16:12.083Z,17.99
2016-12-01T10:17:12.936Z,17.99
2016-12-01T10:18:12.639Z,17.99
2016-12-01T10:19:11.726Z,18.00
2016-12-01T10:20:12.275Z,18.07
2016-12-01T10:21:13.845Z,18.00
2016-12-01T10:22:11.967Z,18.00
2016-12-01T10:23:12.119Z,18.00
2016-12-01T10:24:12.112Z,17.99
2016-12-01T10:25:12.540Z,18.03
2016-12-01T10:26:12.525Z,18.00
2016-12-01T10:27:13.221Z,18.00
2016-12-01T10:28:12.976Z,18.00
2016-12-01T10:29:12.939Z,18.00
2016-12-01T10:30:12.003Z,18.00
2016-12-01T10:31:11.993Z,18.00
2016-12-01T10:32:11.956Z,18.01
2016-12-01T10:33:13.446Z,18.00
2016-12-01T10:34:12.346Z,18.01
2016-12-01T10:35:12.263Z,18.01
2016-12-01T10:36:12.864Z,18.01
2016-12-01T10:37:12.660Z,18.01
2016-12-01T10:38:12.565Z,18.01
2016-12-01T10:39:12.651Z,18.00
2016-12-01T10:40:10.618Z,18.00
2016-12-01T10:41:12.406Z,18.54
2016-12-01T10:42:12.834Z,18.59
2016-12-01T10:43:11.932Z,18.62
2016-12-01T10:44:12.381Z,18.11
2016-12-01T10:45:13.024Z,18.05
2016-12-01T10:46:11.630Z,18.03
2016-12-01T10:47:12.205Z,18.03
2016-12-01T10:48:12.411Z,18.06
2016-12-01T10:49:12.252Z,18.03
2016-12-01T10:50:12.893Z,18.03
2016-12-01T10:51:11.970Z,18.03
2016-12-01T10:52:12.772Z,18.08
2016-12-01T10:53:11.716Z,18.02
2016-12-01T10:54:12.338Z,18.05
2016-12-01T10:55:12.393Z,18.02
2016-12-01T10:56:13.137Z,18.03
2016-12-01T10:57:12.875Z,18.04
2016-12-01T10:58:11.935Z,18.03
2016-12-01T10:59:09.992Z,18.02
2016-12-01T11:00:13.232Z,18.55
2016-12-01T11:01:12.287Z,18.61
2016-12-01T11:02:13.870Z,18.63
2016-12-01T11:03:13.562Z,18.10
2016-12-01T11:04:14.025Z,18.06
2016-12-01T11:05:13.578Z,18.04
2016-12-01T11:06:11.704Z,18.04
2016-12-01T11:07:13.602Z,18.03
2016-12-01T11:08:11.581Z,18.03
2016-12-01T11:09:13.156Z,18.03
2016-12-01T11:10:12.176Z,18.03
2016-12-01T11:11:12.156Z,18.04
2016-12-01T11:12:12.863Z,18.03
2016-12-01T11:13:10.859Z,18.03
2016-12-01T11:14:10.726Z,18.03
2016-12-01T11:15:12.410Z,18.03
2016-12-01T11:16:13.986Z,18.03
2016-12-01T11:17:12.851Z,18.03
2016-12-01T11:18:11.935Z,18.03
2016-12-01T11:19:12.503Z,18.03
2016-12-01T11:20:12.187Z,18.07
2016-12-01T11:21:12.824Z,18.04
2016-12-01T11:22:12.646Z,18.04
2016-12-01T11:23:11.664Z,18.04
2016-12-01T11:24:12.415Z,18.08
2016-12-01T11:25:12.396Z,18.57
2016-12-01T11:26:12.827Z,18.62
2016-12-01T11:27:10.923Z,18.64
2016-12-01T11:28:12.408Z,18.67
2016-12-01T11:29:14.116Z,18.67
2016-12-01T11:30:12.006Z,18.67
2016-12-01T11:31:12.611Z,18.67
2016-12-01T11:32:11.437Z,18.67
2016-12-01T11:33:13.023Z,18.14
2016-12-01T11:34:13.844Z,18.10
2016-12-01T11:35:12.728Z,18.08
2016-12-01T11:36:12.341Z,18.07
2016-12-01T11:37:12.346Z,18.06
2016-12-01T11:38:12.779Z,18.05
2016-12-01T11:39:13.315Z,18.05
2016-12-01T11:40:12.981Z,18.05
2016-12-01T11:41:10.678Z,18.05
2016-12-01T11:42:11.654Z,18.05
2016-12-01T11:43:11.614Z,18.05
2016-12-01T11:44:11.633Z,18.05
2016-12-01T11:45:12.595Z,18.05
2016-12-01T11:46:11.574Z,18.06
2016-12-01T11:47:11.705Z,18.05
2016-12-01T11:48:13.158Z,18.05
2016-12-01T11:49:12.621Z,18.06
2016-12-01T11:50:12.494Z,18.05
2016-12-01T11:51:12.438Z,18.06
2016-12-01T11:52:13.706Z,18.05
2016-12-01T11:53:11.572Z,18.05
2016-12-01T11:54:11.884Z,18.05
2016-12-01T11:55:12.097Z,18.06
2016-12-01T11:56:12.950Z,18.05
2016-12-01T11:57:12.792Z,18.04
2016-12-01T11:58:11.886Z,18.05
2016-12-01T11:59:12.801Z,18.06
2016-12-01T12:00:11.889Z,18.05
2016-12-01T12:01:12.593Z,18.06
2016-12-01T12:02:11.818Z,18.06
2016-12-01T12:03:12.723Z,18.06
2016-12-01T12:04:12.281Z,18.08
2016-12-01T12:05:12.487Z,18.06
2016-12-01T12:06:12.423Z,18.06
2016-12-01T12:07:13.000Z,18.06
2016-12-01T12:08:12.901Z,18.06
2016-12-01T12:09:12.223Z,18.06
2016-12-01T12:10:12.238Z,18.06
2016-12-01T12:11:10.809Z,18.05
2016-12-01T12:12:12.439Z,18.07
2016-12-01T12:13:12.345Z,18.06
2016-12-01T12:14:12.486Z,18.06
2016-12-01T12:15:13.126Z,18.06
2016-12-01T12:16:13.849Z,18.06
2016-12-01T12:17:11.988Z,18.06
2016-12-01T12:18:12.040Z,18.06
2016-12-01T12:19:12.078Z,18.07
2016-12-01T12:20:12.578Z,18.10
2016-12-01T12:21:13.431Z,18.60
2016-12-01T12:22:12.849Z,18.64
2016-12-01T12:23:13.698Z,18.14
2016-12-01T12:24:11.749Z,18.10
2016-12-01T12:25:12.064Z,18.14
2016-12-01T12:26:13.953Z,18.08
2016-12-01T12:27:10.673Z,18.07
2016-12-01T12:28:10.792Z,18.60
2016-12-01T12:29:11.760Z,18.65
2016-12-01T12:30:12.640Z,18.15
2016-12-01T12:31:12.179Z,18.15
2016-12-01T12:32:13.794Z,18.08
2016-12-01T12:33:11.689Z,18.08
2016-12-01T12:34:11.726Z,18.08
2016-12-01T12:35:12.420Z,18.07
2016-12-01T12:36:12.393Z,18.08
2016-12-01T12:37:12.300Z,18.08
2016-12-01T12:38:12.128Z,18.08
2016-12-01T12:39:12.816Z,18.07
2016-12-01T12:40:11.918Z,18.07
2016-12-01T12:41:12.594Z,18.09
2016-12-01T12:42:12.319Z,18.07
2016-12-01T12:43:11.927Z,18.07
2016-12-01T12:44:11.957Z,18.07
2016-12-01T12:45:12.558Z,18.08
2016-12-01T12:46:10.385Z,18.08
2016-12-01T12:47:13.525Z,18.60
2016-12-01T12:48:13.065Z,18.66
2016-12-01T12:49:12.418Z,18.18
2016-12-01T12:50:12.401Z,18.11
2016-12-01T12:51:12.997Z,18.09
2016-12-01T12:52:12.906Z,18.08